Washington, GA

7:03 PM EDT on July 25, 2014 (GMT -0400)
Washington-Wilkes County (KIIY) Elev 646 ft | 33.78 °N, 82.82 °W | Change Station

Current weather conditions updated 8 minutes ago

Clear
Clear
90 °F
Feels Like 102 °F
N
4
Wind Variable Wind from NE

Tomorrow is forecast to be Warmer than today.

Today
High -- | Low -- °F
--% Chance of Precip.
Yesterday
High -- | Low -- °F
Precip. -- in
6:38 AM 8:36 PM
Waning Crescent, 1% visible
Pressure 29.98 in
Visibility 10.0 miles
Clouds Clear
Heat Index 102 °F
Dew Point 77 °F
Humidity 66%
Rainfall 0.00 in
Snow Depth Not available.
UV 1 out of 12
Pollen 4.50 out of 12
Air Quality Not available.
Flu Activity Not available.
METAR KIIY 252255Z AUTO 04003KT 10SM CLR 32/25 A2998 RMK AO2 LTG DSNT S

More Conditions Fewer Conditions

Pressure 29.98 in
Visibility 10.0 miles
Clouds Clear
Heat Index 102 °F
Dew Point 77 °F
Humidity 66%
Rainfall 0.00 in
Snow Depth Not available.
UV 1 out of 12
Pollen 4.50 out of 12
Air Quality Not available.
Flu Activity Not available.
METAR KIIY 252255Z AUTO 04003KT 10SM CLR 32/25 A2998 RMK AO2 LTG DSNT S

More Conditions Fewer Conditions

10-Day Weather Forecast

Almanac

Astronomy

Jul. 25, 2014 Rise Set
Actual Time 6:38 AM EDT 8:36 PM EDT
Civil Twilight 6:10 AM EDT 9:04 PM EDT
Nautical Twilight 5:36 AM EDT 9:37 PM EDT
Astronomical Twilight 5:00 AM EDT 10:13 PM EDT
Moon 5:34 AM EDT 7:35 PM EDT
Length of Visible Light 14h 53m
Length of Day
13h 58m
Tomorrow will be 1m 23s shorter.
Waning Crescent, 1% of the Moon is Illuminated
Today
Waning Crescent
Jul 26
New
Aug 3
First Quarter
Aug 10
Full
Aug 17
Last Quarter

Today's Extremes

State Highs State Lows

Community

WunderPhotos

Upload Photos

1,737,436 photos uploaded!

Nearby

Snow Depth

Station Depth Elevation
No new snow has been reported.

Earthquake Activity

City Distance Mag. Time & Date
No recent earthquake activity has been reported nearby.
Minimum magnitude displayed is 2.5.

Coastal Water Temperatures

Place Temperature
No Stations Reporting

Nearby Weather Stations

Station Location Temp. Heat Index Dew Point Humidity Wind Precip. Elev Updated Type
RAWS WASHINGTON GA, Tignall, GA 88 °F 94 °F 71 °F 58% NE  at  4 mph 0.00 in / hr 616 ft 6:02 PM EDT MADIS
Deerlick Astronomy Village (BE), Sharon, GA 87.8 °F 100 °F 77 °F 70% North  at  0.0 mph 0.00 in / hr 571 ft 7:00 PM EDT Normal
Deerlick Astronomy Village, Sharon, GA 88.9 °F 99 °F 75 °F 64% North  at  2.0 mph 0.00 in / hr 558 ft 7:00 PM EDT Normal
Lincoln County Board of Education, Lincolnton, GA 87.5 °F 95 °F 73 °F 62% NE  at  0.0 mph 0.00 in / hr 443 ft 7:03 PM EDT Rapid Fire

Show More Stations Show Fewer Stations